Time;durP1;ratioP1;P1;durP2;ratioP2;P2;SDS_P1;SDS_P2;PMS_P1;PMS_P2;Temp;Humidity;BMP_temperature;BMP_pressure;BME280_temperature;BME280_humidity;BME280_pressure;Samples;Min_cycle;Max_cycle;Signal;HPM_P1;HPM_P2
2021/11/10 00:00:26;;;;;;;19.85;9.27;;;5.60;62.60;;;;;;5024254;28;20580;-80
2021/11/10 00:02:52;;;;;;;18.05;9.50;;;5.60;63.40;;;;;;5021845;28;20397;-81
2021/11/10 00:05:18;;;;;;;13.45;8.27;;;5.50;64.50;;;;;;5015970;28;20424;-79
2021/11/10 00:07:44;;;;;;;16.10;8.20;;;5.50;65.40;;;;;;5022925;28;20401;-79
2021/11/10 00:10:11;;;;;;;16.42;7.85;;;5.50;65.80;;;;;;5022689;28;20415;-80
2021/11/10 00:12:38;;;;;;;20.95;9.10;;;5.50;64.80;;;;;;5024896;28;20392;-79
2021/11/10 00:15:05;;;;;;;17.95;8.48;;;5.50;64.20;;;;;;5033069;28;20393;-80
2021/11/10 00:17:30;;;;;;;14.30;7.65;;;5.40;65.10;;;;;;5022825;28;20475;-81
2021/11/10 00:19:56;;;;;;;17.25;8.20;;;5.40;65.30;;;;;;5020616;28;20454;-79
2021/11/10 00:22:22;;;;;;;14.88;7.97;;;5.40;66.20;;;;;;5022470;28;20751;-80
2021/11/10 00:24:48;;;;;;;16.05;9.02;;;5.30;67.60;;;;;;5027945;28;20395;-79
2021/11/10 00:27:13;;;;;;;16.00;7.30;;;5.40;67.80;;;;;;5024416;28;20388;-79
2021/11/10 00:29:39;;;;;;;12.43;7.43;;;5.40;66.50;;;;;;5005688;28;20391;-80
2021/11/10 00:32:05;;;;;;;16.90;8.80;;;5.40;65.70;;;;;;5013200;28;20454;-80
2021/11/10 00:34:31;;;;;;;16.70;7.80;;;5.40;65.90;;;;;;5021758;28;20460;-80
2021/11/10 00:36:56;;;;;;;15.70;7.30;;;5.30;66.80;;;;;;5033839;28;20418;-79
2021/11/10 00:39:22;;;;;;;19.83;9.50;;;5.30;66.80;;;;;;5050538;28;20411;-78
2021/11/10 00:41:48;;;;;;;15.13;7.90;;;5.40;67.00;;;;;;5039173;28;20973;-80
2021/11/10 00:44:13;;;;;;;14.70;7.60;;;5.30;67.70;;;;;;5025222;28;20380;-80
2021/11/10 00:46:39;;;;;;;12.93;7.43;;;5.30;68.00;;;;;;5025163;28;20381;-78
2021/11/10 00:49:04;;;;;;;13.03;7.90;;;5.30;68.70;;;;;;5024938;28;20744;-80
2021/11/10 00:51:30;;;;;;;16.07;7.60;;;5.40;68.20;;;;;;5020574;28;20492;-79
2021/11/10 00:53:57;;;;;;;20.55;9.30;;;5.40;66.20;;;;;;5026017;28;20409;-76
2021/11/10 00:56:22;;;;;;;12.82;7.18;;;5.40;66.60;;;;;;5028285;28;20389;-79
2021/11/10 00:58:48;;;;;;;16.23;8.07;;;5.40;66.50;;;;;;5027348;28;20415;-80
2021/11/10 01:01:14;;;;;;;15.50;8.30;;;5.40;66.60;;;;;;5029284;28;20743;-79
2021/11/10 01:03:39;;;;;;;17.50;8.17;;;5.40;66.30;;;;;;5026700;28;20420;-78
2021/11/10 01:06:05;;;;;;;13.25;7.60;;;5.40;65.70;;;;;;5028491;28;20392;-77
2021/11/10 01:08:30;;;;;;;15.27;7.28;;;5.40;66.30;;;;;;5025820;28;20436;-78
2021/11/10 01:10:57;;;;;;;14.75;7.25;;;5.40;66.70;;;;;;5022280;28;20854;-78
2021/11/10 01:13:23;;;;;;;16.25;8.60;;;5.50;64.80;;;;;;5021575;28;20404;-80
2021/11/10 01:15:50;;;;;;;17.60;8.10;;;5.50;64.90;;;;;;5024395;28;20415;-79
2021/11/10 01:18:15;;;;;;;14.43;8.30;;;5.40;66.00;;;;;;5033940;28;20486;-80
2021/11/10 01:20:41;;;;;;;15.25;8.40;;;5.40;66.90;;;;;;5027100;28;20405;-78
2021/11/10 01:23:08;;;;;;;24.70;10.10;;;5.30;67.80;;;;;;5028225;28;20475;-80
2021/11/10 01:25:35;;;;;;;18.50;9.57;;;5.30;68.20;;;;;;5027799;28;20385;-80
2021/11/10 01:28:00;;;;;;;24.67;11.75;;;5.20;68.20;;;;;;5025648;28;20389;-80
2021/11/10 01:30:26;;;;;;;20.90;10.82;;;5.30;67.10;;;;;;5023854;28;20771;-79
2021/11/10 01:32:52;;;;;;;26.35;12.00;;;5.20;68.00;;;;;;5027113;28;20405;-79
2021/11/10 01:35:18;;;;;;;22.90;11.57;;;5.20;68.60;;;;;;5026377;28;20409;-79
2021/11/10 01:37:44;;;;;;;26.95;11.85;;;5.10;69.00;;;;;;5041747;28;20906;-80
2021/11/10 01:40:12;;;;;;;21.80;10.57;;;5.10;69.00;;;;;;5043381;28;20414;-80
2021/11/10 01:42:40;;;;;;;26.08;11.80;;;5.10;70.20;;;;;;5042920;28;20383;-79
2021/11/10 01:45:08;;;;;;;19.20;9.40;;;5.10;69.70;;;;;;5023736;28;20430;-78
2021/11/10 01:47:33;;;;;;;21.50;9.73;;;5.10;69.80;;;;;;5022058;28;20388;-78
2021/11/10 01:49:59;;;;;;;19.75;10.77;;;5.10;69.40;;;;;;5015666;28;20406;-79
2021/11/10 01:52:24;;;;;;;20.45;10.10;;;5.10;70.40;;;;;;5002993;28;20425;-79
2021/11/10 01:54:51;;;;;;;19.33;9.60;;;5.00;70.70;;;;;;5006815;28;20411;-77
2021/11/10 01:57:17;;;;;;;19.75;9.23;;;5.00;71.10;;;;;;5032644;28;20401;-76
2021/11/10 01:59:48;;;;;;;20.80;10.00;;;5.10;71.40;;;;;;5034415;28;20424;-77
2021/11/10 02:02:24;;;;;;;20.20;9.68;;;5.00;72.00;;;;;;5045358;28;20468;-78
2021/11/10 02:04:50;;;;;;;22.10;9.50;;;5.00;72.10;;;;;;5026085;28;20400;-79
2021/11/10 02:07:18;;;;;;;20.05;9.07;;;5.00;71.70;;;;;;5022416;28;20457;-79
2021/11/10 02:09:45;;;;;;;14.80;8.90;;;4.90;73.00;;;;;;5019493;28;20405;-79
2021/11/10 02:12:12;;;;;;;25.70;9.98;;;4.90;74.00;;;;;;5014110;28;20793;-79
2021/11/10 02:14:38;;;;;;;25.88;11.75;;;4.90;74.50;;;;;;5014952;28;20504;-81
2021/11/10 02:17:06;;;;;;;19.02;11.05;;;4.90;73.60;;;;;;5016150;28;20388;-80
2021/11/10 02:19:32;;;;;;;23.90;12.15;;;5.00;72.90;;;;;;5014432;28;20424;-80
2021/11/10 02:21:58;;;;;;;29.63;14.70;;;4.90;73.50;;;;;;5020400;28;20385;-78
2021/11/10 02:24:26;;;;;;;28.67;15.73;;;4.90;73.50;;;;;;5033033;28;20416;-80
2021/11/10 02:26:52;;;;;;;29.20;15.95;;;4.90;73.20;;;;;;5018829;28;20751;-79
2021/11/10 02:29:26;;;;;;;29.05;15.50;;;4.90;74.20;;;;;;5010561;28;20420;-78
2021/11/10 02:31:54;;;;;;;32.53;14.63;;;4.90;74.20;;;;;;5018958;28;20404;-78
2021/11/10 02:34:20;;;;;;;25.30;14.95;;;4.80;74.60;;;;;;5015756;28;20405;-80
2021/11/10 02:36:46;;;;;;;22.17;12.73;;;4.80;74.50;;;;;;5023920;28;20541;-79
2021/11/10 02:39:16;;;;;;;29.65;12.43;;;4.80;74.90;;;;;;5031569;28;20409;-79
2021/11/10 02:41:42;;;;;;;23.98;11.38;;;4.80;75.00;;;;;;5000746;28;20751;-79
2021/11/10 02:44:10;;;;;;;21.45;11.63;;;4.80;74.80;;;;;;5016181;28;20395;-78
2021/11/10 02:46:36;;;;;;;16.52;9.85;;;4.80;75.00;;;;;;5017768;28;20409;-79
2021/11/10 02:49:03;;;;;;;22.08;10.40;;;4.80;75.60;;;;;;5022131;28;20395;-78
2021/11/10 02:51:29;;;;;;;16.30;9.25;;;4.80;74.70;;;;;;5036425;28;20401;-78
2021/11/10 02:53:55;;;;;;;15.40;8.73;;;4.80;74.60;;;;;;5025582;28;20920;-79
2021/11/10 02:56:21;;;;;;;17.97;8.60;;;4.90;74.80;;;;;;5019975;28;20397;-79
2021/11/10 02:58:46;;;;;;;20.63;10.30;;;4.90;74.30;;;;;;5032520;28;20408;-80
2021/11/10 03:01:12;;;;;;;19.70;8.63;;;4.90;74.50;;;;;;5028309;28;20391;-79
2021/11/10 03:03:38;;;;;;;19.30;8.50;;;4.80;74.90;;;;;;5028555;28;20396;-78
2021/11/10 03:06:03;;;;;;;14.03;7.77;;;4.90;74.50;;;;;;5018296;28;20392;-78
2021/11/10 03:08:29;;;;;;;16.25;8.57;;;4.90;73.70;;;;;;5030365;28;20399;-78
2021/11/10 03:10:55;;;;;;;17.27;8.60;;;4.90;73.30;;;;;;5036965;28;20407;-79
2021/11/10 03:13:22;;;;;;;17.85;8.10;;;4.80;72.50;;;;;;5025324;28;20407;-79
2021/11/10 03:15:49;;;;;;;20.23;8.80;;;4.80;73.50;;;;;;5015767;28;20405;-79
2021/11/10 03:18:17;;;;;;;20.55;9.10;;;4.90;73.00;;;;;;5016402;28;20401;-79
2021/11/10 03:20:42;;;;;;;16.98;9.15;;;4.90;73.90;;;;;;5016311;28;20403;-79
2021/11/10 03:23:09;;;;;;;21.63;9.20;;;4.90;74.00;;;;;;5017754;28;20389;-78
2021/11/10 03:25:35;;;;;;;16.30;9.25;;;4.80;73.80;;;;;;5018050;28;20487;-79
2021/11/10 03:28:01;;;;;;;20.00;9.60;;;4.80;74.30;;;;;;5012315;28;20914;-79
2021/11/10 03:30:27;;;;;;;18.40;8.57;;;4.80;74.50;;;;;;5016504;28;20432;-79
2021/11/10 03:32:55;;;;;;;19.95;8.85;;;4.70;74.60;;;;;;5018426;28;20389;-79
2021/11/10 03:35:22;;;;;;;16.40;9.50;;;4.70;74.60;;;;;;5019609;28;20443;-79
2021/11/10 03:37:48;;;;;;;18.08;9.63;;;4.70;75.70;;;;;;5034877;28;20418;-79
2021/11/10 03:40:15;;;;;;;20.00;9.07;;;4.60;75.90;;;;;;5033327;28;20433;-79
2021/11/10 03:42:41;;;;;;;19.08;9.25;;;4.60;76.00;;;;;;5016962;28;20393;-79
2021/11/10 03:45:08;;;;;;;17.10;8.95;;;4.60;75.90;;;;;;5019517;28;20377;-79
2021/11/10 03:47:33;;;;;;;17.63;9.70;;;4.60;75.70;;;;;;5021903;28;20471;-80
2021/11/10 03:50:00;;;;;;;24.05;9.75;;;4.60;75.40;;;;;;5020746;28;20393;-79
2021/11/10 03:52:26;;;;;;;20.25;9.43;;;4.60;75.80;;;;;;5030292;28;20411;-77
2021/11/10 03:54:52;;;;;;;18.48;9.77;;;4.60;75.00;;;;;;5033134;28;20446;-77
2021/11/10 03:57:17;;;;;;;17.75;9.00;;;4.50;75.30;;;;;;5023650;28;20408;-79
2021/11/10 03:59:43;;;;;;;20.73;10.57;;;4.50;75.80;;;;;;5016952;28;20921;-78
2021/11/10 04:02:11;;;;;;;21.35;9.48;;;4.50;75.60;;;;;;5037473;28;20542;-79
2021/11/10 04:04:37;;;;;;;23.40;10.90;;;4.50;76.20;;;;;;5017497;28;20412;-79
2021/11/10 04:07:04;;;;;;;20.23;10.38;;;4.50;75.40;;;;;;5021357;28;20472;-78
2021/11/10 04:09:30;;;;;;;19.40;11.38;;;4.40;76.30;;;;;;5021573;28;20427;-78
2021/11/10 04:11:55;;;;;;;19.27;9.10;;;4.40;77.30;;;;;;5020083;28;20411;-80
2021/11/10 04:14:21;;;;;;;22.97;11.27;;;4.40;77.30;;;;;;5022770;28;20428;-79
2021/11/10 04:16:46;;;;;;;23.00;10.00;;;4.40;78.10;;;;;;5021645;28;20385;-80
2021/11/10 04:19:12;;;;;;;17.33;9.80;;;4.40;78.30;;;;;;5020933;28;20830;-78
2021/11/10 04:21:38;;;;;;;20.10;10.50;;;4.30;78.10;;;;;;5026281;28;20503;-80
2021/11/10 04:24:04;;;;;;;23.90;9.70;;;4.30;78.70;;;;;;5027415;28;20401;-77
2021/11/10 04:26:33;;;;;;;21.52;10.65;;;4.30;79.50;;;;;;5025724;28;20389;-77
2021/11/10 04:28:59;;;;;;;22.25;10.25;;;4.30;78.30;;;;;;5021704;28;20416;-79
2021/11/10 04:31:25;;;;;;;21.95;10.35;;;4.30;79.50;;;;;;5031301;28;20460;-80
2021/11/10 04:33:51;;;;;;;20.30;10.30;;;4.30;79.20;;;;;;5018931;28;21050;-81
2021/11/10 04:36:18;;;;;;;20.92;9.95;;;4.30;79.00;;;;;;5024782;28;20440;-77
2021/11/10 04:38:44;;;;;;;19.20;10.02;;;4.30;79.10;;;;;;5018915;28;20882;-78
2021/11/10 04:41:10;;;;;;;18.35;10.80;;;4.20;79.30;;;;;;5034946;28;20404;-79
2021/11/10 04:43:36;;;;;;;19.40;9.88;;;4.20;80.10;;;;;;5032725;28;20411;-79
2021/11/10 04:46:14;;;;;;;16.73;10.40;;;4.30;80.40;;;;;;5032737;28;20400;-78
2021/11/10 04:48:40;;;;;;;19.77;10.02;;;4.30;79.60;;;;;;5031164;28;20377;-78
2021/11/10 04:51:07;;;;;;;19.83;9.77;;;4.30;79.70;;;;;;5029672;28;20459;-78
2021/11/10 04:53:38;;;;;;;20.27;10.90;;;4.20;80.60;;;;;;5025310;28;20405;-80
2021/11/10 04:56:05;;;;;;;20.63;10.73;;;4.20;80.50;;;;;;5018778;28;20948;-79
2021/11/10 04:58:31;;;;;;;21.60;10.40;;;4.10;81.20;;;;;;5023339;28;20439;-78
2021/11/10 05:00:58;;;;;;;20.52;11.10;;;4.00;82.20;;;;;;5033717;28;20396;-79
2021/11/10 05:03:24;;;;;;;21.77;10.75;;;4.10;82.00;;;;;;5031399;28;20396;-79
2021/11/10 05:05:50;;;;;;;18.20;9.87;;;4.10;82.70;;;;;;5018790;28;20715;-80
2021/11/10 05:08:16;;;;;;;18.92;10.90;;;4.00;82.40;;;;;;5008303;28;20468;-79
2021/11/10 05:10:42;;;;;;;20.90;11.30;;;4.00;82.90;;;;;;5018460;28;20418;-80
2021/11/10 05:13:07;;;;;;;29.48;11.60;;;4.00;82.70;;;;;;5017917;28;20427;-78
2021/11/10 05:15:34;;;;;;;26.20;10.97;;;4.00;82.80;;;;;;5013450;28;20433;-81
2021/11/10 05:18:00;;;;;;;27.70;12.43;;;3.90;82.50;;;;;;5030429;28;20397;-79
2021/11/10 05:20:26;;;;;;;24.90;11.15;;;3.90;83.30;;;;;;5023870;28;20498;-80
2021/11/10 05:22:51;;;;;;;19.48;10.80;;;3.90;84.30;;;;;;5020478;28;20401;-78
2021/11/10 05:25:17;;;;;;;21.83;11.17;;;4.00;82.20;;;;;;5031079;28;20759;-78
2021/11/10 05:27:43;;;;;;;19.15;10.57;;;3.90;82.50;;;;;;5014001;28;20413;-79
2021/11/10 05:30:10;;;;;;;25.77;12.53;;;3.80;84.10;;;;;;5015447;28;20521;-78
2021/11/10 05:32:36;;;;;;;21.38;11.40;;;3.90;83.40;;;;;;5023007;28;20913;-79
2021/11/10 05:35:02;;;;;;;23.40;11.47;;;3.90;82.90;;;;;;5029920;28;20401;-78
2021/11/10 05:37:28;;;;;;;23.65;10.20;;;3.90;82.70;;;;;;5026658;28;20774;-80
2021/11/10 05:39:54;;;;;;;18.55;9.95;;;3.90;82.00;;;;;;5027157;28;20425;-79
2021/11/10 05:42:21;;;;;;;19.13;10.60;;;3.80;82.30;;;;;;5019085;28;20754;-80
2021/11/10 05:44:46;;;;;;;18.25;9.45;;;3.90;83.30;;;;;;5025979;28;20389;-77
2021/11/10 05:47:12;;;;;;;18.33;10.40;;;3.90;84.60;;;;;;5025705;28;20423;-81
2021/11/10 05:49:38;;;;;;;18.45;9.68;;;4.10;83.30;;;;;;5018923;28;20389;-82
2021/11/10 05:52:05;;;;;;;19.15;9.88;;;4.10;81.20;;;;;;5016798;28;20403;-81
2021/11/10 05:54:31;;;;;;;31.92;10.55;;;4.20;80.00;;;;;;5015419;28;20385;-81
2021/11/10 05:56:57;;;;;;;26.45;12.13;;;4.10;81.40;;;;;;5016411;28;20904;-80
2021/11/10 05:59:23;;;;;;;21.88;10.20;;;4.10;80.60;;;;;;5016867;28;20809;-80
2021/11/10 06:01:49;;;;;;;21.60;10.00;;;4.10;81.60;;;;;;5017537;28;20793;-81
2021/11/10 06:04:15;;;;;;;21.08;10.57;;;4.00;82.20;;;;;;5016533;28;20731;-80
2021/11/10 06:06:41;;;;;;;24.33;10.37;;;3.80;83.50;;;;;;5018750;28;20395;-80
2021/11/10 06:09:07;;;;;;;21.38;11.13;;;3.80;84.60;;;;;;5021159;28;20409;-78
2021/11/10 06:11:32;;;;;;;20.95;10.88;;;3.70;86.00;;;;;;5016132;28;20470;-79
2021/11/10 06:13:58;;;;;;;21.38;9.40;;;3.70;87.90;;;;;;5018113;28;20393;-79
2021/11/10 06:16:24;;;;;;;17.83;10.13;;;3.70;88.70;;;;;;5018754;28;20480;-79
2021/11/10 06:18:50;;;;;;;18.50;9.37;;;3.70;89.20;;;;;;5019419;28;20676;-79
2021/11/10 06:21:15;;;;;;;21.95;10.40;;;3.70;89.40;;;;;;5016661;28;20407;-80
2021/11/10 06:23:41;;;;;;;19.45;9.73;;;3.70;89.30;;;;;;5023953;28;20436;-80
2021/11/10 06:26:07;;;;;;;18.40;9.53;;;3.70;89.50;;;;;;5027330;28;20400;-80
2021/11/10 06:28:33;;;;;;;21.80;10.43;;;3.60;89.20;;;;;;5027421;28;20408;-80
2021/11/10 06:30:59;;;;;;;20.70;9.77;;;3.60;89.70;;;;;;5016187;28;20768;-80
2021/11/10 06:33:24;;;;;;;17.50;9.48;;;3.60;90.60;;;;;;5013777;28;20418;-80
2021/11/10 06:35:50;;;;;;;21.35;10.98;;;3.60;91.30;;;;;;5014723;28;20447;-81
2021/11/10 06:38:16;;;;;;;21.85;12.50;;;3.60;90.80;;;;;;5018776;28;20420;-81
2021/11/10 06:40:42;;;;;;;23.40;11.70;;;3.60;90.90;;;;;;5022505;28;20392;-81
2021/11/10 06:43:08;;;;;;;25.33;13.77;;;3.60;91.10;;;;;;5020793;28;20388;-77
2021/11/10 06:45:33;;;;;;;30.90;13.70;;;3.70;91.20;;;;;;5020794;28;20392;-83
2021/11/10 06:47:59;;;;;;;24.37;14.00;;;3.70;90.90;;;;;;5020392;28;20853;-81
2021/11/10 06:50:25;;;;;;;21.97;11.07;;;3.60;91.60;;;;;;5020679;28;20455;-82
2021/11/10 06:52:50;;;;;;;21.20;10.48;;;3.70;91.20;;;;;;5020509;28;20401;-82
2021/11/10 06:55:16;;;;;;;19.88;11.15;;;3.80;91.10;;;;;;5023398;28;20795;-80
2021/11/10 06:57:42;;;;;;;24.20;11.32;;;3.80;90.50;;;;;;5020187;28;20450;-82
2021/11/10 07:00:11;;;;;;;191.90;29.30;;;3.80;90.30;;;;;;5020926;28;20405;-81
2021/11/10 07:02:37;;;;;;;32.65;12.85;;;3.90;89.20;;;;;;5041211;28;20407;-81
2021/11/10 07:05:04;;;;;;;24.58;11.48;;;3.90;87.80;;;;;;5023403;28;20401;-81
2021/11/10 07:07:30;;;;;;;25.20;11.35;;;3.90;86.90;;;;;;5032568;28;20373;-80
2021/11/10 07:09:55;;;;;;;34.58;12.00;;;3.90;87.20;;;;;;5035622;28;20411;-80
2021/11/10 07:12:21;;;;;;;51.58;12.90;;;4.00;87.30;;;;;;5032772;28;20423;-81
2021/11/10 07:14:46;;;;;;;37.35;11.80;;;4.00;84.60;;;;;;5024056;28;20416;-80
2021/11/10 07:17:13;;;;;;;22.80;11.05;;;4.10;82.60;;;;;;5023574;28;20388;-81
2021/11/10 07:19:39;;;;;;;25.60;11.10;;;4.10;83.20;;;;;;5019348;28;20458;-81
2021/11/10 07:22:04;;;;;;;20.67;10.33;;;4.10;83.80;;;;;;5021616;28;20393;-83
2021/11/10 07:24:30;;;;;;;23.43;10.10;;;4.00;83.20;;;;;;5018629;28;20393;-79
2021/11/10 07:26:59;;;;;;;20.83;9.70;;;4.00;84.70;;;;;;5018520;28;20408;-80
2021/11/10 07:29:26;;;;;;;24.38;11.13;;;4.10;84.70;;;;;;5013541;28;20404;-80
2021/11/10 07:31:52;;;;;;;20.08;10.80;;;4.20;83.80;;;;;;5020297;28;20405;-79
2021/11/10 07:34:17;;;;;;;21.38;10.73;;;4.20;83.40;;;;;;5021477;28;20405;-79
2021/11/10 07:36:43;;;;;;;20.57;10.63;;;4.30;82.50;;;;;;5012103;28;20501;-77
2021/11/10 07:39:08;;;;;;;21.10;10.60;;;4.30;81.30;;;;;;5016234;28;20734;-78
2021/11/10 07:41:36;;;;;;;21.43;10.10;;;4.40;80.20;;;;;;5025491;28;20395;-78
2021/11/10 07:44:02;;;;;;;18.58;9.90;;;4.50;78.00;;;;;;5019161;28;20410;-77
2021/11/10 07:46:30;;;;;;;31.10;12.07;;;4.60;75.60;;;;;;5018951;28;20393;-77
2021/11/10 07:48:56;;;;;;;42.97;12.75;;;4.60;76.00;;;;;;5006551;28;20424;-78
2021/11/10 07:51:22;;;;;;;51.80;16.77;;;4.70;74.10;;;;;;5028377;28;20389;-78
2021/11/10 07:53:48;;;;;;;43.45;14.30;;;4.70;73.60;;;;;;5035218;28;20397;-78
2021/11/10 07:56:14;;;;;;;26.73;11.38;;;4.80;73.20;;;;;;5011422;28;20446;-78
2021/11/10 07:58:40;;;;;;;24.77;11.00;;;4.80;72.20;;;;;;5014235;28;20403;-79
2021/11/10 08:01:07;;;;;;;27.90;10.90;;;4.80;72.00;;;;;;5010463;28;20418;-79
2021/11/10 08:03:34;;;;;;;34.70;13.48;;;4.90;71.70;;;;;;5013368;28;20408;-78
2021/11/10 08:06:01;;;;;;;28.63;11.40;;;5.00;70.40;;;;;;5020128;28;20747;-76
2021/11/10 08:08:26;;;;;;;36.95;11.73;;;5.00;69.80;;;;;;5005156;28;21125;-78
2021/11/10 08:10:55;;;;;;;32.45;11.75;;;5.00;68.80;;;;;;4998871;28;20387;-78
2021/11/10 08:13:22;;;;;;;22.20;10.80;;;5.10;68.00;;;;;;4999397;28;20382;-79
2021/11/10 08:15:50;;;;;;;24.83;11.35;;;5.20;67.20;;;;;;5015063;28;20431;-79
2021/11/10 08:18:16;;;;;;;30.60;11.82;;;5.30;66.00;;;;;;5015420;28;20419;-78
2021/11/10 08:20:43;;;;;;;19.17;10.27;;;5.40;64.60;;;;;;4995803;28;20402;-77
2021/11/10 08:23:19;;;;;;;35.87;12.43;;;5.50;64.40;;;;;;5006151;28;20435;-78
2021/11/10 08:25:49;;;;;;;29.33;12.00;;;5.50;62.90;;;;;;5013793;28;20443;-77
2021/11/10 08:28:19;;;;;;;32.27;12.00;;;5.50;62.70;;;;;;5002317;28;20397;-78
2021/11/10 08:30:54;;;;;;;51.27;16.47;;;5.60;62.70;;;;;;5015803;28;20412;-81
2021/11/10 08:33:22;;;;;;;39.42;11.85;;;5.80;59.60;;;;;;5018918;28;20424;-79
2021/11/10 08:35:49;;;;;;;18.80;10.40;;;5.90;58.40;;;;;;5024066;28;20464;-77
2021/11/10 08:38:18;;;;;;;22.08;10.90;;;6.10;54.00;;;;;;5027638;28;20399;-77
2021/11/10 08:40:46;;;;;;;22.80;10.13;;;6.10;53.20;;;;;;5018412;28;20440;-78
2021/11/10 08:43:12;;;;;;;20.05;10.55;;;6.10;52.70;;;;;;5015431;28;20455;-79
2021/11/10 08:45:43;;;;;;;24.08;11.10;;;6.10;52.70;;;;;;5024425;28;20884;-78
2021/11/10 08:48:08;;;;;;;23.05;10.68;;;6.00;53.70;;;;;;5020954;28;20399;-76
2021/11/10 08:50:39;;;;;;;24.97;11.40;;;6.00;54.90;;;;;;5031252;28;20387;-75
2021/11/10 08:53:05;;;;;;;25.20;11.10;;;6.00;53.90;;;;;;5011635;28;20388;-76
2021/11/10 08:55:31;;;;;;;20.83;10.68;;;6.00;54.60;;;;;;5011860;28;20397;-79
2021/11/10 08:57:57;;;;;;;24.40;10.60;;;6.10;54.90;;;;;;5012118;28;20396;-76
2021/11/10 09:00:26;;;;;;;42.22;12.45;;;6.30;53.60;;;;;;5015591;28;20924;-75
2021/11/10 09:02:52;;;;;;;23.13;10.98;;;6.60;50.40;;;;;;5011682;28;20759;-75
2021/11/10 09:05:18;;;;;;;25.50;11.50;;;6.90;49.90;;;;;;5012476;28;20404;-75
2021/11/10 09:07:45;;;;;;;31.23;13.05;;;7.30;47.50;;;;;;5005758;28;20764;-75
2021/11/10 09:10:13;;;;;;;23.20;11.60;;;7.40;45.50;;;;;;5024362;28;20757;-76
2021/11/10 09:12:40;;;;;;;22.33;11.70;;;7.40;46.10;;;;;;5010283;28;20403;-75
2021/11/10 09:15:19;;;;;;;31.15;13.00;;;7.30;46.00;;;;;;5008026;28;20404;-77
2021/11/10 09:17:45;;;;;;;23.15;12.25;;;7.20;46.70;;;;;;5015675;28;20487;-75
2021/11/10 09:20:18;;;;;;;23.27;12.17;;;7.00;47.70;;;;;;5013966;28;20418;-78
2021/11/10 09:22:44;;;;;;;26.45;12.52;;;7.10;48.10;;;;;;5013447;28;20416;-76
2021/11/10 09:25:12;;;;;;;25.35;13.10;;;7.20;47.70;;;;;;5016991;28;20435;-76
2021/11/10 09:27:40;;;;;;;37.47;13.67;;;7.30;47.60;;;;;;5012458;28;20549;-76
2021/11/10 09:30:10;;;;;;;26.77;13.67;;;7.40;47.20;;;;;;5014799;28;20389;-76
2021/11/10 09:32:37;;;;;;;21.57;12.90;;;7.60;46.20;;;;;;4993640;28;20395;-76
2021/11/10 09:35:06;;;;;;;29.23;13.23;;;7.60;46.20;;;;;;5012329;28;20801;-76
2021/11/10 09:37:32;;;;;;;26.43;13.33;;;7.70;46.20;;;;;;5021975;28;20389;-77
2021/11/10 09:39:59;;;;;;;23.13;12.80;;;7.80;45.10;;;;;;5012049;28;20408;-77
2021/11/10 09:42:28;;;;;;;23.10;12.85;;;7.90;44.80;;;;;;5014749;28;20404;-76
2021/11/10 09:44:55;;;;;;;28.80;13.40;;;8.00;44.20;;;;;;5013524;28;20420;-76
2021/11/10 09:47:20;;;;;;;25.88;13.95;;;8.10;43.60;;;;;;5017840;28;20463;-75
2021/11/10 09:49:50;;;;;;;26.10;12.80;;;8.30;43.40;;;;;;5014356;28;20401;-75
2021/11/10 09:52:18;;;;;;;37.53;13.52;;;8.30;42.30;;;;;;5025360;28;20417;-77
2021/11/10 09:54:44;;;;;;;25.13;12.38;;;8.40;42.20;;;;;;5016080;28;20952;-76
2021/11/10 09:57:09;;;;;;;21.63;12.43;;;8.70;41.60;;;;;;5012926;28;20492;-76
2021/11/10 09:59:39;;;;;;;34.63;13.82;;;8.80;40.90;;;;;;5015518;28;20577;-75
2021/11/10 10:02:11;;;;;;;26.90;12.27;;;8.90;40.40;;;;;;5022488;28;20397;-76
2021/11/10 10:04:41;;;;;;;21.10;12.40;;;9.00;39.20;;;;;;5016551;28;20577;-77
2021/11/10 10:07:08;;;;;;;27.65;14.60;;;9.20;39.40;;;;;;5021454;28;20387;-75
2021/11/10 10:09:35;;;;;;;34.53;13.70;;;9.40;38.30;;;;;;5013168;28;20744;-76
2021/11/10 10:12:01;;;;;;;32.60;12.73;;;9.50;37.30;;;;;;4996245;28;20401;-77
2021/11/10 10:14:26;;;;;;;26.20;13.95;;;9.70;36.90;;;;;;4996091;28;20413;-77
2021/11/10 10:16:52;;;;;;;33.92;13.75;;;9.90;36.50;;;;;;5010147;28;20428;-78
2021/11/10 10:19:17;;;;;;;33.92;13.82;;;10.10;35.60;;;;;;5017488;28;20482;-75
2021/11/10 10:21:59;;;;;;;31.63;13.65;;;10.40;35.10;;;;;;5013877;28;20900;-77
2021/11/10 10:24:25;;;;;;;34.30;15.05;;;10.60;34.00;;;;;;5009759;28;20388;-77
2021/11/10 10:26:50;;;;;;;32.15;13.65;;;10.70;33.40;;;;;;5014643;28;20397;-76
2021/11/10 10:29:17;;;;;;;36.30;15.00;;;10.90;33.10;;;;;;5011166;28;21707;-76
2021/11/10 10:31:43;;;;;;;26.75;13.55;;;11.00;32.40;;;;;;5013464;28;20463;-76
2021/11/10 10:34:11;;;;;;;26.33;13.25;;;11.20;30.70;;;;;;5008848;28;20408;-75
2021/11/10 10:36:39;;;;;;;27.60;12.32;;;11.10;30.70;;;;;;5021985;28;20441;-77
2021/11/10 10:39:09;;;;;;;24.30;13.57;;;11.00;30.10;;;;;;5034011;28;20500;-77
2021/11/10 10:41:37;;;;;;;30.63;14.02;;;11.00;30.60;;;;;;5012445;28;20754;-76
2021/11/10 10:44:10;;;;;;;31.53;14.53;;;11.00;30.80;;;;;;5014962;28;20434;-76
2021/11/10 10:46:38;;;;;;;22.10;12.80;;;11.10;30.50;;;;;;5015423;28;20885;-75
2021/11/10 10:49:21;;;;;;;28.00;12.82;;;11.30;30.20;;;;;;5019306;28;20408;-77
2021/11/10 10:51:54;;;;;;;35.90;13.27;;;11.30;29.70;;;;;;5020567;28;20752;-76
2021/11/10 10:54:27;;;;;;;23.95;13.57;;;11.30;29.60;;;;;;5020953;28;20397;-75
2021/11/10 10:56:59;;;;;;;25.97;13.13;;;11.40;29.50;;;;;;5017938;28;20426;-77
2021/11/10 10:59:25;;;;;;;28.80;14.18;;;11.30;29.40;;;;;;5033556;28;20490;-77
2021/11/10 11:02:03;;;;;;;22.30;12.88;;;11.30;30.00;;;;;;5025569;28;20395;-75
2021/11/10 11:04:31;;;;;;;26.85;14.25;;;11.20;30.20;;;;;;5034027;28;20446;-76
2021/11/10 11:07:02;;;;;;;34.03;14.30;;;11.00;30.50;;;;;;5013352;28;20397;-76
2021/11/10 11:09:30;;;;;;;28.45;13.57;;;11.10;30.70;;;;;;5016856;28;20401;-77
2021/11/10 11:12:31;;;;;;;25.80;13.60;;;11.10;30.90;;;;;;5021500;28;20391;-75
2021/11/10 11:15:04;;;;;;;24.40;12.27;;;10.90;30.90;;;;;;5026979;28;20506;-75
2021/11/10 11:17:38;;;;;;;22.75;12.77;;;10.90;30.10;;;;;;5011538;28;20393;-76
2021/11/10 11:20:08;;;;;;;30.23;14.40;;;10.90;30.00;;;;;;5017190;28;20500;-76
2021/11/10 11:22:35;;;;;;;22.77;12.85;;;11.00;30.40;;;;;;5012188;28;20404;-76
2021/11/10 11:25:30;;;;;;;25.02;13.50;;;10.90;30.00;;;;;;5027677;28;20402;-75
2021/11/10 11:28:00;;;;;;;28.42;13.30;;;10.80;30.20;;;;;;4983439;28;20497;-76
2021/11/10 11:30:56;;;;;;;29.85;14.70;;;10.80;30.60;;;;;;5019237;28;20407;-75
2021/11/10 11:33:22;;;;;;;28.63;13.40;;;10.80;30.80;;;;;;5024816;28;20419;-75
2021/11/10 11:35:53;;;;;;;28.05;13.57;;;10.80;30.80;;;;;;5014007;28;20484;-75
2021/11/10 11:38:22;;;;;;;23.90;13.32;;;10.80;30.70;;;;;;5018106;28;20436;-75
2021/11/10 11:40:51;;;;;;;25.33;12.90;;;10.80;30.80;;;;;;5015824;28;20453;-76
2021/11/10 11:43:19;;;;;;;25.48;13.02;;;11.00;29.70;;;;;;5012968;28;20402;-76
2021/11/10 11:45:50;;;;;;;20.40;12.83;;;11.20;28.80;;;;;;5010183;28;20388;-76
2021/11/10 11:48:17;;;;;;;24.95;13.02;;;11.10;29.00;;;;;;5014177;28;20440;-77
2021/11/10 11:50:43;;;;;;;30.43;15.00;;;11.10;29.50;;;;;;5015779;28;20404;-76
2021/11/10 11:53:09;;;;;;;32.58;15.38;;;11.00;30.00;;;;;;5011859;28;20809;-77
2021/11/10 11:55:40;;;;;;;30.02;14.85;;;11.10;30.50;;;;;;5009888;28;20401;-75
2021/11/10 11:58:08;;;;;;;35.33;16.03;;;11.10;30.60;;;;;;5002162;28;20461;-76
2021/11/10 12:00:41;;;;;;;30.65;16.60;;;11.20;30.00;;;;;;5009604;28;20405;-76
2021/11/10 12:03:20;;;;;;;30.38;16.83;;;11.20;29.90;;;;;;5014334;28;20412;-76
2021/11/10 12:06:07;;;;;;;36.83;16.80;;;11.10;30.30;;;;;;5011040;28;20764;-78
2021/11/10 12:08:42;;;;;;;37.25;16.30;;;11.20;30.30;;;;;;5003434;28;20409;-76
2021/11/10 12:11:20;;;;;;;32.10;15.95;;;11.10;30.30;;;;;;5010145;28;20388;-75
2021/11/10 12:14:04;;;;;;;27.63;15.40;;;11.30;30.80;;;;;;5020784;28;20391;-77
2021/11/10 12:17:04;;;;;;;31.95;16.83;;;11.50;30.30;;;;;;5016021;28;20433;-76
2021/11/10 12:19:53;;;;;;;49.88;16.13;;;11.40;30.00;;;;;;5014738;28;20511;-78
2021/11/10 12:22:22;;;;;;;25.95;14.48;;;11.40;29.00;;;;;;5020527;28;20404;-77
2021/11/10 12:24:53;;;;;;;26.35;14.73;;;11.30;29.10;;;;;;5002896;28;20389;-76
2021/11/10 12:27:39;;;;;;;57.53;17.50;;;11.30;29.40;;;;;;5014117;28;20412;-75
2021/11/10 12:30:22;;;;;;;36.77;16.20;;;11.20;29.70;;;;;;5021193;28;20464;-79
2021/11/10 12:32:56;;;;;;;38.10;16.50;;;11.20;30.10;;;;;;5012870;28;20401;-77
2021/11/10 12:35:27;;;;;;;29.27;15.65;;;11.20;30.30;;;;;;5020998;28;20468;-78
2021/11/10 12:37:55;;;;;;;28.95;14.80;;;11.20;30.00;;;;;;5023853;28;20432;-78
2021/11/10 12:40:43;;;;;;;32.15;14.52;;;11.20;29.90;;;;;;5028420;28;20475;-78